sensor_id;sensor_type;location;lat;lon;timestamp;P1;durP1;ratioP1;P2;durP2;ratioP2
6850;SDS011;3464;42.728;23.296;2023-05-07T00:01:22;24.53;;;13.10;;
6850;SDS011;3464;42.728;23.296;2023-05-07T00:03:49;22.20;;;13.40;;
6850;SDS011;3464;42.728;23.296;2023-05-07T00:06:16;23.47;;;13.30;;
6850;SDS011;3464;42.728;23.296;2023-05-07T00:08:42;23.90;;;13.80;;
6850;SDS011;3464;42.728;23.296;2023-05-07T00:11:09;22.27;;;12.83;;
6850;SDS011;3464;42.728;23.296;2023-05-07T00:13:36;23.03;;;13.23;;
6850;SDS011;3464;42.728;23.296;2023-05-07T00:16:03;23.70;;;13.80;;
6850;SDS011;3464;42.728;23.296;2023-05-07T00:18:30;22.90;;;13.10;;
6850;SDS011;3464;42.728;23.296;2023-05-07T00:20:57;22.97;;;13.30;;
6850;SDS011;3464;42.728;23.296;2023-05-07T00:23:24;20.97;;;13.10;;
6850;SDS011;3464;42.728;23.296;2023-05-07T00:25:51;25.60;;;13.20;;
6850;SDS011;3464;42.728;23.296;2023-05-07T00:28:18;23.33;;;12.83;;
6850;SDS011;3464;42.728;23.296;2023-05-07T00:30:45;20.53;;;13.00;;
6850;SDS011;3464;42.728;23.296;2023-05-07T00:33:12;22.50;;;13.50;;
6850;SDS011;3464;42.728;23.296;2023-05-07T00:35:38;26.27;;;14.00;;
6850;SDS011;3464;42.728;23.296;2023-05-07T00:38:05;22.47;;;13.50;;
6850;SDS011;3464;42.728;23.296;2023-05-07T00:40:31;25.47;;;13.77;;
6850;SDS011;3464;42.728;23.296;2023-05-07T00:42:58;23.37;;;13.80;;
6850;SDS011;3464;42.728;23.296;2023-05-07T00:45:26;25.37;;;14.57;;
6850;SDS011;3464;42.728;23.296;2023-05-07T00:47:55;22.77;;;14.17;;
6850;SDS011;3464;42.728;23.296;2023-05-07T00:50:22;23.87;;;13.27;;
6850;SDS011;3464;42.728;23.296;2023-05-07T00:52:48;22.10;;;14.37;;
6850;SDS011;3464;42.728;23.296;2023-05-07T00:55:15;24.53;;;14.20;;
6850;SDS011;3464;42.728;23.296;2023-05-07T00:57:41;22.67;;;14.10;;
6850;SDS011;3464;42.728;23.296;2023-05-07T01:00:08;21.67;;;13.90;;
6850;SDS011;3464;42.728;23.296;2023-05-07T01:02:36;23.80;;;14.90;;
6850;SDS011;3464;42.728;23.296;2023-05-07T01:05:02;26.80;;;14.40;;
6850;SDS011;3464;42.728;23.296;2023-05-07T01:07:29;25.83;;;15.77;;
6850;SDS011;3464;42.728;23.296;2023-05-07T01:09:56;25.57;;;15.80;;
6850;SDS011;3464;42.728;23.296;2023-05-07T01:12:22;31.43;;;16.37;;
6850;SDS011;3464;42.728;23.296;2023-05-07T01:14:49;28.23;;;16.30;;
6850;SDS011;3464;42.728;23.296;2023-05-07T01:17:16;26.70;;;16.60;;
6850;SDS011;3464;42.728;23.296;2023-05-07T01:19:43;30.40;;;16.87;;
6850;SDS011;3464;42.728;23.296;2023-05-07T01:22:10;29.70;;;16.70;;
6850;SDS011;3464;42.728;23.296;2023-05-07T01:24:37;26.00;;;15.43;;
6850;SDS011;3464;42.728;23.296;2023-05-07T01:27:04;29.43;;;15.70;;
6850;SDS011;3464;42.728;23.296;2023-05-07T01:29:30;27.00;;;14.60;;
6850;SDS011;3464;42.728;23.296;2023-05-07T01:31:57;27.60;;;15.33;;
6850;SDS011;3464;42.728;23.296;2023-05-07T01:34:23;24.10;;;13.90;;
6850;SDS011;3464;42.728;23.296;2023-05-07T01:36:50;22.90;;;14.00;;
6850;SDS011;3464;42.728;23.296;2023-05-07T01:39:16;26.03;;;15.13;;
6850;SDS011;3464;42.728;23.296;2023-05-07T01:41:43;24.77;;;14.37;;
6850;SDS011;3464;42.728;23.296;2023-05-07T01:44:10;24.20;;;15.70;;
6850;SDS011;3464;42.728;23.296;2023-05-07T01:46:36;26.43;;;15.00;;
6850;SDS011;3464;42.728;23.296;2023-05-07T01:49:03;26.17;;;15.50;;
6850;SDS011;3464;42.728;23.296;2023-05-07T01:51:30;30.83;;;15.80;;
6850;SDS011;3464;42.728;23.296;2023-05-07T01:53:58;24.07;;;15.23;;
6850;SDS011;3464;42.728;23.296;2023-05-07T01:56:24;25.83;;;14.27;;
6850;SDS011;3464;42.728;23.296;2023-05-07T01:58:51;24.10;;;14.67;;
6850;SDS011;3464;42.728;23.296;2023-05-07T02:01:17;25.20;;;13.53;;
6850;SDS011;3464;42.728;23.296;2023-05-07T02:03:44;24.03;;;13.20;;
6850;SDS011;3464;42.728;23.296;2023-05-07T02:06:11;22.43;;;11.97;;
6850;SDS011;3464;42.728;23.296;2023-05-07T02:08:37;19.50;;;12.03;;
6850;SDS011;3464;42.728;23.296;2023-05-07T02:11:04;19.20;;;11.40;;
6850;SDS011;3464;42.728;23.296;2023-05-07T02:13:32;20.10;;;11.63;;
6850;SDS011;3464;42.728;23.296;2023-05-07T02:15:57;21.70;;;12.10;;
6850;SDS011;3464;42.728;23.296;2023-05-07T02:18:23;20.27;;;12.07;;
6850;SDS011;3464;42.728;23.296;2023-05-07T02:20:50;18.73;;;11.40;;
6850;SDS011;3464;42.728;23.296;2023-05-07T02:23:16;22.30;;;11.70;;
6850;SDS011;3464;42.728;23.296;2023-05-07T02:25:43;23.70;;;12.83;;
6850;SDS011;3464;42.728;23.296;2023-05-07T02:30:42;18.23;;;11.10;;
6850;SDS011;3464;42.728;23.296;2023-05-07T02:33:13;18.50;;;10.43;;
6850;SDS011;3464;42.728;23.296;2023-05-07T02:35:40;19.90;;;11.63;;
6850;SDS011;3464;42.728;23.296;2023-05-07T02:38:07;22.33;;;11.07;;
6850;SDS011;3464;42.728;23.296;2023-05-07T02:40:33;29.50;;;14.10;;
6850;SDS011;3464;42.728;23.296;2023-05-07T02:43:00;33.43;;;18.20;;
6850;SDS011;3464;42.728;23.296;2023-05-07T02:45:28;42.83;;;20.60;;
6850;SDS011;3464;42.728;23.296;2023-05-07T02:47:55;36.07;;;18.90;;
6850;SDS011;3464;42.728;23.296;2023-05-07T02:50:23;28.60;;;18.13;;
6850;SDS011;3464;42.728;23.296;2023-05-07T02:52:51;29.87;;;17.40;;
6850;SDS011;3464;42.728;23.296;2023-05-07T02:55:18;25.77;;;14.80;;
6850;SDS011;3464;42.728;23.296;2023-05-07T02:57:46;25.60;;;15.50;;
6850;SDS011;3464;42.728;23.296;2023-05-07T03:00:14;25.20;;;15.80;;
6850;SDS011;3464;42.728;23.296;2023-05-07T03:02:42;22.60;;;14.03;;
6850;SDS011;3464;42.728;23.296;2023-05-07T03:05:09;24.70;;;13.57;;
6850;SDS011;3464;42.728;23.296;2023-05-07T03:07:36;21.17;;;12.30;;
6850;SDS011;3464;42.728;23.296;2023-05-07T03:10:02;24.57;;;13.67;;
6850;SDS011;3464;42.728;23.296;2023-05-07T03:12:29;22.10;;;13.37;;
6850;SDS011;3464;42.728;23.296;2023-05-07T03:14:55;22.90;;;13.53;;
6850;SDS011;3464;42.728;23.296;2023-05-07T03:17:22;22.67;;;13.10;;
6850;SDS011;3464;42.728;23.296;2023-05-07T03:19:48;21.87;;;13.37;;
6850;SDS011;3464;42.728;23.296;2023-05-07T03:22:15;22.70;;;13.10;;
6850;SDS011;3464;42.728;23.296;2023-05-07T03:24:41;23.27;;;12.40;;
6850;SDS011;3464;42.728;23.296;2023-05-07T03:27:08;22.70;;;12.33;;
6850;SDS011;3464;42.728;23.296;2023-05-07T03:29:34;20.70;;;13.17;;
6850;SDS011;3464;42.728;23.296;2023-05-07T03:32:01;20.57;;;12.10;;
6850;SDS011;3464;42.728;23.296;2023-05-07T03:34:28;19.93;;;11.90;;
6850;SDS011;3464;42.728;23.296;2023-05-07T03:36:54;22.30;;;12.50;;
6850;SDS011;3464;42.728;23.296;2023-05-07T03:39:21;19.13;;;11.27;;
6850;SDS011;3464;42.728;23.296;2023-05-07T03:41:48;21.77;;;11.00;;
6850;SDS011;3464;42.728;23.296;2023-05-07T03:44:14;17.07;;;11.00;;
6850;SDS011;3464;42.728;23.296;2023-05-07T03:46:41;19.23;;;11.10;;
6850;SDS011;3464;42.728;23.296;2023-05-07T03:49:08;19.80;;;9.80;;
6850;SDS011;3464;42.728;23.296;2023-05-07T03:51:36;16.53;;;8.73;;
6850;SDS011;3464;42.728;23.296;2023-05-07T03:54:02;19.83;;;8.87;;
6850;SDS011;3464;42.728;23.296;2023-05-07T03:56:29;14.77;;;7.30;;
6850;SDS011;3464;42.728;23.296;2023-05-07T03:58:55;17.80;;;7.63;;
6850;SDS011;3464;42.728;23.296;2023-05-07T04:01:22;16.83;;;8.20;;
6850;SDS011;3464;42.728;23.296;2023-05-07T04:03:48;15.57;;;7.90;;
6850;SDS011;3464;42.728;23.296;2023-05-07T04:06:15;15.23;;;7.60;;
6850;SDS011;3464;42.728;23.296;2023-05-07T04:08:42;17.10;;;7.60;;
6850;SDS011;3464;42.728;23.296;2023-05-07T04:11:09;18.97;;;7.47;;
6850;SDS011;3464;42.728;23.296;2023-05-07T04:13:36;20.90;;;7.13;;
6850;SDS011;3464;42.728;23.296;2023-05-07T04:16:03;17.10;;;7.70;;
6850;SDS011;3464;42.728;23.296;2023-05-07T04:18:30;15.43;;;6.70;;
6850;SDS011;3464;42.728;23.296;2023-05-07T04:20:56;14.60;;;6.50;;
6850;SDS011;3464;42.728;23.296;2023-05-07T04:23:23;14.03;;;6.67;;
6850;SDS011;3464;42.728;23.296;2023-05-07T04:25:50;16.67;;;6.83;;
6850;SDS011;3464;42.728;23.296;2023-05-07T04:28:16;17.07;;;6.67;;
6850;SDS011;3464;42.728;23.296;2023-05-07T04:30:42;15.13;;;6.80;;
6850;SDS011;3464;42.728;23.296;2023-05-07T04:33:09;13.00;;;6.20;;
6850;SDS011;3464;42.728;23.296;2023-05-07T04:35:35;23.80;;;7.50;;
6850;SDS011;3464;42.728;23.296;2023-05-07T04:38:02;21.13;;;6.57;;
6850;SDS011;3464;42.728;23.296;2023-05-07T04:40:28;15.30;;;6.20;;
6850;SDS011;3464;42.728;23.296;2023-05-07T04:42:55;12.90;;;6.47;;
6850;SDS011;3464;42.728;23.296;2023-05-07T04:45:22;18.00;;;6.90;;
6850;SDS011;3464;42.728;23.296;2023-05-07T04:47:49;18.20;;;6.70;;
6850;SDS011;3464;42.728;23.296;2023-05-07T04:50:16;17.53;;;7.20;;
6850;SDS011;3464;42.728;23.296;2023-05-07T04:52:42;17.13;;;6.90;;
6850;SDS011;3464;42.728;23.296;2023-05-07T04:55:10;15.20;;;6.50;;
6850;SDS011;3464;42.728;23.296;2023-05-07T04:57:36;14.30;;;6.33;;
6850;SDS011;3464;42.728;23.296;2023-05-07T05:00:03;13.97;;;6.70;;
6850;SDS011;3464;42.728;23.296;2023-05-07T05:02:30;16.97;;;6.90;;
6850;SDS011;3464;42.728;23.296;2023-05-07T05:04:56;16.70;;;6.60;;
6850;SDS011;3464;42.728;23.296;2023-05-07T05:07:24;15.90;;;6.87;;
6850;SDS011;3464;42.728;23.296;2023-05-07T05:09:50;15.53;;;6.93;;
6850;SDS011;3464;42.728;23.296;2023-05-07T05:12:17;16.00;;;6.63;;
6850;SDS011;3464;42.728;23.296;2023-05-07T05:14:43;13.83;;;6.97;;
6850;SDS011;3464;42.728;23.296;2023-05-07T05:17:10;17.00;;;6.60;;
6850;SDS011;3464;42.728;23.296;2023-05-07T05:19:37;13.40;;;6.60;;
6850;SDS011;3464;42.728;23.296;2023-05-07T05:22:04;19.03;;;6.10;;
6850;SDS011;3464;42.728;23.296;2023-05-07T05:24:31;15.90;;;6.60;;
6850;SDS011;3464;42.728;23.296;2023-05-07T05:26:57;18.10;;;6.90;;
6850;SDS011;3464;42.728;23.296;2023-05-07T05:29:24;17.90;;;6.60;;
6850;SDS011;3464;42.728;23.296;2023-05-07T05:31:51;14.53;;;6.30;;
6850;SDS011;3464;42.728;23.296;2023-05-07T05:34:17;19.27;;;6.73;;
6850;SDS011;3464;42.728;23.296;2023-05-07T05:36:44;16.60;;;7.40;;
6850;SDS011;3464;42.728;23.296;2023-05-07T05:39:11;17.10;;;6.17;;
6850;SDS011;3464;42.728;23.296;2023-05-07T05:41:37;17.57;;;8.30;;
6850;SDS011;3464;42.728;23.296;2023-05-07T05:44:04;14.90;;;6.40;;
6850;SDS011;3464;42.728;23.296;2023-05-07T05:46:30;14.77;;;6.50;;
6850;SDS011;3464;42.728;23.296;2023-05-07T05:48:58;16.27;;;7.27;;
6850;SDS011;3464;42.728;23.296;2023-05-07T05:51:25;20.53;;;7.10;;
6850;SDS011;3464;42.728;23.296;2023-05-07T05:53:51;15.10;;;7.23;;
6850;SDS011;3464;42.728;23.296;2023-05-07T05:56:18;14.80;;;7.30;;
6850;SDS011;3464;42.728;23.296;2023-05-07T05:58:44;18.27;;;7.03;;
6850;SDS011;3464;42.728;23.296;2023-05-07T06:01:11;20.87;;;7.30;;
6850;SDS011;3464;42.728;23.296;2023-05-07T06:03:37;15.80;;;6.47;;
6850;SDS011;3464;42.728;23.296;2023-05-07T06:06:04;17.60;;;7.40;;
6850;SDS011;3464;42.728;23.296;2023-05-07T06:08:30;15.47;;;7.03;;
6850;SDS011;3464;42.728;23.296;2023-05-07T06:10:57;15.33;;;6.87;;
6850;SDS011;3464;42.728;23.296;2023-05-07T06:13:23;13.20;;;6.90;;
6850;SDS011;3464;42.728;23.296;2023-05-07T06:15:50;14.00;;;6.43;;
6850;SDS011;3464;42.728;23.296;2023-05-07T06:18:17;17.40;;;7.03;;
6850;SDS011;3464;42.728;23.296;2023-05-07T06:20:43;18.27;;;7.00;;
6850;SDS011;3464;42.728;23.296;2023-05-07T06:23:10;15.00;;;7.13;;
6850;SDS011;3464;42.728;23.296;2023-05-07T06:25:36;14.23;;;6.70;;
6850;SDS011;3464;42.728;23.296;2023-05-07T06:28:03;13.97;;;7.03;;
6850;SDS011;3464;42.728;23.296;2023-05-07T06:30:30;13.87;;;7.20;;
6850;SDS011;3464;42.728;23.296;2023-05-07T06:32:56;16.50;;;7.53;;
6850;SDS011;3464;42.728;23.296;2023-05-07T06:35:24;16.90;;;7.07;;
6850;SDS011;3464;42.728;23.296;2023-05-07T06:37:50;14.67;;;7.10;;
6850;SDS011;3464;42.728;23.296;2023-05-07T06:40:17;13.93;;;6.73;;
6850;SDS011;3464;42.728;23.296;2023-05-07T06:42:43;14.60;;;6.73;;
6850;SDS011;3464;42.728;23.296;2023-05-07T06:45:10;15.57;;;7.90;;
6850;SDS011;3464;42.728;23.296;2023-05-07T06:47:37;17.20;;;7.13;;
6850;SDS011;3464;42.728;23.296;2023-05-07T06:50:03;14.37;;;7.17;;
6850;SDS011;3464;42.728;23.296;2023-05-07T06:52:30;20.50;;;8.00;;
6850;SDS011;3464;42.728;23.296;2023-05-07T06:54:57;14.50;;;7.40;;
6850;SDS011;3464;42.728;23.296;2023-05-07T06:57:24;19.30;;;7.53;;
6850;SDS011;3464;42.728;23.296;2023-05-07T06:59:50;15.17;;;8.03;;
6850;SDS011;3464;42.728;23.296;2023-05-07T07:02:17;14.80;;;7.13;;
6850;SDS011;3464;42.728;23.296;2023-05-07T07:04:44;14.80;;;7.63;;
6850;SDS011;3464;42.728;23.296;2023-05-07T07:07:10;16.60;;;7.47;;
6850;SDS011;3464;42.728;23.296;2023-05-07T07:09:37;14.93;;;6.67;;
6850;SDS011;3464;42.728;23.296;2023-05-07T07:12:03;21.37;;;7.87;;
6850;SDS011;3464;42.728;23.296;2023-05-07T07:14:31;18.53;;;7.17;;
6850;SDS011;3464;42.728;23.296;2023-05-07T07:16:58;16.23;;;8.00;;
6850;SDS011;3464;42.728;23.296;2023-05-07T07:19:25;14.40;;;7.20;;
6850;SDS011;3464;42.728;23.296;2023-05-07T07:21:51;16.83;;;7.03;;
6850;SDS011;3464;42.728;23.296;2023-05-07T07:24:18;14.43;;;7.53;;
6850;SDS011;3464;42.728;23.296;2023-05-07T07:26:45;15.37;;;7.50;;
6850;SDS011;3464;42.728;23.296;2023-05-07T07:29:11;17.13;;;7.07;;
6850;SDS011;3464;42.728;23.296;2023-05-07T07:31:38;22.33;;;7.23;;
6850;SDS011;3464;42.728;23.296;2023-05-07T07:34:05;14.10;;;6.60;;
6850;SDS011;3464;42.728;23.296;2023-05-07T07:36:31;17.40;;;7.37;;
6850;SDS011;3464;42.728;23.296;2023-05-07T07:38:58;16.33;;;7.50;;
6850;SDS011;3464;42.728;23.296;2023-05-07T07:41:24;16.77;;;7.33;;
6850;SDS011;3464;42.728;23.296;2023-05-07T07:43:51;16.80;;;6.57;;
6850;SDS011;3464;42.728;23.296;2023-05-07T07:46:18;15.30;;;7.23;;
6850;SDS011;3464;42.728;23.296;2023-05-07T07:48:44;14.33;;;6.43;;
6850;SDS011;3464;42.728;23.296;2023-05-07T07:51:11;14.00;;;6.70;;
6850;SDS011;3464;42.728;23.296;2023-05-07T07:53:37;17.27;;;6.50;;
6850;SDS011;3464;42.728;23.296;2023-05-07T07:56:04;15.43;;;6.43;;
6850;SDS011;3464;42.728;23.296;2023-05-07T07:58:31;16.93;;;6.80;;
6850;SDS011;3464;42.728;23.296;2023-05-07T08:00:57;15.60;;;6.73;;
6850;SDS011;3464;42.728;23.296;2023-05-07T08:03:25;20.83;;;7.67;;
6850;SDS011;3464;42.728;23.296;2023-05-07T08:05:52;18.97;;;7.83;;
6850;SDS011;3464;42.728;23.296;2023-05-07T08:08:18;14.40;;;6.73;;
6850;SDS011;3464;42.728;23.296;2023-05-07T08:10:45;15.00;;;7.00;;
6850;SDS011;3464;42.728;23.296;2023-05-07T08:13:11;15.83;;;7.70;;
6850;SDS011;3464;42.728;23.296;2023-05-07T08:15:38;15.73;;;8.13;;
6850;SDS011;3464;42.728;23.296;2023-05-07T08:18:05;17.33;;;8.23;;
6850;SDS011;3464;42.728;23.296;2023-05-07T08:20:32;15.83;;;7.20;;
6850;SDS011;3464;42.728;23.296;2023-05-07T08:22:59;21.00;;;8.03;;
6850;SDS011;3464;42.728;23.296;2023-05-07T08:25:25;23.43;;;8.13;;
6850;SDS011;3464;42.728;23.296;2023-05-07T08:27:52;15.93;;;7.20;;
6850;SDS011;3464;42.728;23.296;2023-05-07T08:30:18;19.93;;;8.20;;
6850;SDS011;3464;42.728;23.296;2023-05-07T08:32:45;16.27;;;7.73;;
6850;SDS011;3464;42.728;23.296;2023-05-07T08:35:12;16.37;;;7.80;;
6850;SDS011;3464;42.728;23.296;2023-05-07T08:37:38;23.70;;;6.97;;
6850;SDS011;3464;42.728;23.296;2023-05-07T08:40:05;15.93;;;6.43;;
6850;SDS011;3464;42.728;23.296;2023-05-07T08:42:34;15.30;;;6.80;;
6850;SDS011;3464;42.728;23.296;2023-05-07T08:44:59;15.60;;;6.57;;
6850;SDS011;3464;42.728;23.296;2023-05-07T08:47:28;34.33;;;7.63;;
6850;SDS011;3464;42.728;23.296;2023-05-07T08:49:53;17.43;;;6.90;;
6850;SDS011;3464;42.728;23.296;2023-05-07T08:52:19;15.43;;;7.80;;
6850;SDS011;3464;42.728;23.296;2023-05-07T08:54:46;15.97;;;6.70;;
6850;SDS011;3464;42.728;23.296;2023-05-07T08:57:13;15.03;;;5.17;;
6850;SDS011;3464;42.728;23.296;2023-05-07T08:59:40;14.50;;;5.07;;
6850;SDS011;3464;42.728;23.296;2023-05-07T09:02:06;15.77;;;5.70;;
6850;SDS011;3464;42.728;23.296;2023-05-07T09:04:33;16.73;;;4.80;;
6850;SDS011;3464;42.728;23.296;2023-05-07T09:06:59;12.80;;;4.70;;
6850;SDS011;3464;42.728;23.296;2023-05-07T09:09:26;13.40;;;5.57;;
6850;SDS011;3464;42.728;23.296;2023-05-07T09:11:56;15.97;;;6.50;;
6850;SDS011;3464;42.728;23.296;2023-05-07T09:16:58;11.97;;;5.23;;
6850;SDS011;3464;42.728;23.296;2023-05-07T09:19:25;14.50;;;5.20;;
6850;SDS011;3464;42.728;23.296;2023-05-07T09:21:58;14.60;;;5.60;;
6850;SDS011;3464;42.728;23.296;2023-05-07T09:24:24;18.80;;;5.67;;
6850;SDS011;3464;42.728;23.296;2023-05-07T09:26:51;15.80;;;5.53;;
6850;SDS011;3464;42.728;23.296;2023-05-07T09:31:47;20.80;;;5.53;;
6850;SDS011;3464;42.728;23.296;2023-05-07T09:34:14;16.40;;;5.33;;
6850;SDS011;3464;42.728;23.296;2023-05-07T09:36:40;12.67;;;4.40;;
6850;SDS011;3464;42.728;23.296;2023-05-07T09:39:07;12.50;;;4.57;;
6850;SDS011;3464;42.728;23.296;2023-05-07T09:41:36;15.30;;;5.20;;
6850;SDS011;3464;42.728;23.296;2023-05-07T09:44:00;11.77;;;5.03;;
6850;SDS011;3464;42.728;23.296;2023-05-07T09:46:28;14.40;;;4.97;;
6850;SDS011;3464;42.728;23.296;2023-05-07T09:48:56;11.43;;;4.57;;
6850;SDS011;3464;42.728;23.296;2023-05-07T09:51:22;15.33;;;5.40;;
6850;SDS011;3464;42.728;23.296;2023-05-07T09:53:48;15.70;;;4.80;;
6850;SDS011;3464;42.728;23.296;2023-05-07T09:56:14;17.33;;;5.20;;
6850;SDS011;3464;42.728;23.296;2023-05-07T09:58:43;16.63;;;4.83;;
6850;SDS011;3464;42.728;23.296;2023-05-07T10:01:10;15.33;;;4.50;;
6850;SDS011;3464;42.728;23.296;2023-05-07T10:03:39;13.00;;;4.83;;
6850;SDS011;3464;42.728;23.296;2023-05-07T10:06:06;14.30;;;4.97;;
6850;SDS011;3464;42.728;23.296;2023-05-07T10:08:32;12.50;;;4.27;;
6850;SDS011;3464;42.728;23.296;2023-05-07T10:10:59;12.10;;;4.50;;
6850;SDS011;3464;42.728;23.296;2023-05-07T10:13:26;11.80;;;4.47;;
6850;SDS011;3464;42.728;23.296;2023-05-07T10:15:53;19.00;;;4.47;;
6850;SDS011;3464;42.728;23.296;2023-05-07T10:18:20;12.50;;;4.40;;
6850;SDS011;3464;42.728;23.296;2023-05-07T10:20:47;12.57;;;3.90;;
6850;SDS011;3464;42.728;23.296;2023-05-07T10:23:14;11.63;;;4.30;;
6850;SDS011;3464;42.728;23.296;2023-05-07T10:25:40;12.73;;;4.03;;
6850;SDS011;3464;42.728;23.296;2023-05-07T10:28:08;11.60;;;3.63;;
6850;SDS011;3464;42.728;23.296;2023-05-07T10:30:44;10.80;;;3.67;;
6850;SDS011;3464;42.728;23.296;2023-05-07T10:33:10;11.67;;;3.43;;
6850;SDS011;3464;42.728;23.296;2023-05-07T10:35:38;10.47;;;3.20;;
6850;SDS011;3464;42.728;23.296;2023-05-07T10:38:04;12.20;;;3.47;;
6850;SDS011;3464;42.728;23.296;2023-05-07T10:40:31;15.37;;;4.03;;
6850;SDS011;3464;42.728;23.296;2023-05-07T10:42:58;11.27;;;3.60;;
6850;SDS011;3464;42.728;23.296;2023-05-07T10:45:26;11.57;;;3.77;;
6850;SDS011;3464;42.728;23.296;2023-05-07T10:50:30;10.23;;;3.83;;
6850;SDS011;3464;42.728;23.296;2023-05-07T10:55:36;11.33;;;4.57;;
6850;SDS011;3464;42.728;23.296;2023-05-07T11:00:42;11.63;;;4.00;;
6850;SDS011;3464;42.728;23.296;2023-05-07T11:03:08;11.43;;;4.40;;
6850;SDS011;3464;42.728;23.296;2023-05-07T11:05:35;13.30;;;4.20;;
6850;SDS011;3464;42.728;23.296;2023-05-07T11:08:02;12.00;;;4.33;;
6850;SDS011;3464;42.728;23.296;2023-05-07T11:13:07;11.50;;;4.57;;
6850;SDS011;3464;42.728;23.296;2023-05-07T11:15:39;12.73;;;4.20;;
6850;SDS011;3464;42.728;23.296;2023-05-07T11:18:05;13.43;;;3.93;;
6850;SDS011;3464;42.728;23.296;2023-05-07T11:26:03;11.70;;;4.17;;
6850;SDS011;3464;42.728;23.296;2023-05-07T11:28:37;12.33;;;4.37;;
6850;SDS011;3464;42.728;23.296;2023-05-07T11:31:04;10.90;;;3.77;;
6850;SDS011;3464;42.728;23.296;2023-05-07T11:33:31;13.83;;;4.20;;
6850;SDS011;3464;42.728;23.296;2023-05-07T11:35:57;10.37;;;3.60;;
6850;SDS011;3464;42.728;23.296;2023-05-07T11:38:24;12.20;;;3.80;;
6850;SDS011;3464;42.728;23.296;2023-05-07T11:40:51;10.97;;;3.30;;
6850;SDS011;3464;42.728;23.296;2023-05-07T11:43:18;11.80;;;3.40;;
6850;SDS011;3464;42.728;23.296;2023-05-07T11:45:45;10.80;;;3.47;;
6850;SDS011;3464;42.728;23.296;2023-05-07T11:48:13;12.30;;;3.40;;
6850;SDS011;3464;42.728;23.296;2023-05-07T11:53:17;15.60;;;3.30;;
6850;SDS011;3464;42.728;23.296;2023-05-07T11:55:44;13.30;;;3.50;;
6850;SDS011;3464;42.728;23.296;2023-05-07T11:58:11;13.57;;;3.30;;
6850;SDS011;3464;42.728;23.296;2023-05-07T12:00:37;11.60;;;3.73;;
6850;SDS011;3464;42.728;23.296;2023-05-07T12:03:04;10.67;;;3.27;;
6850;SDS011;3464;42.728;23.296;2023-05-07T12:05:30;9.53;;;3.10;;
6850;SDS011;3464;42.728;23.296;2023-05-07T12:07:57;11.00;;;3.70;;
6850;SDS011;3464;42.728;23.296;2023-05-07T12:10:23;15.80;;;3.90;;
6850;SDS011;3464;42.728;23.296;2023-05-07T12:12:50;10.50;;;3.43;;
6850;SDS011;3464;42.728;23.296;2023-05-07T12:15:17;11.33;;;3.20;;
6850;SDS011;3464;42.728;23.296;2023-05-07T12:17:43;12.37;;;3.97;;
6850;SDS011;3464;42.728;23.296;2023-05-07T12:20:10;13.83;;;3.53;;
6850;SDS011;3464;42.728;23.296;2023-05-07T12:22:36;11.10;;;3.53;;
6850;SDS011;3464;42.728;23.296;2023-05-07T12:25:03;10.47;;;3.30;;
6850;SDS011;3464;42.728;23.296;2023-05-07T12:27:30;13.87;;;3.23;;
6850;SDS011;3464;42.728;23.296;2023-05-07T12:29:57;9.73;;;3.27;;
6850;SDS011;3464;42.728;23.296;2023-05-07T12:32:25;12.10;;;3.23;;
6850;SDS011;3464;42.728;23.296;2023-05-07T12:34:52;11.63;;;3.17;;
6850;SDS011;3464;42.728;23.296;2023-05-07T12:37:24;9.10;;;2.70;;
6850;SDS011;3464;42.728;23.296;2023-05-07T12:42:32;11.97;;;3.37;;
6850;SDS011;3464;42.728;23.296;2023-05-07T12:44:57;10.93;;;3.27;;
6850;SDS011;3464;42.728;23.296;2023-05-07T12:47:24;10.90;;;3.43;;
6850;SDS011;3464;42.728;23.296;2023-05-07T12:49:54;11.80;;;3.30;;
6850;SDS011;3464;42.728;23.296;2023-05-07T12:52:20;10.40;;;3.47;;
6850;SDS011;3464;42.728;23.296;2023-05-07T12:54:46;11.57;;;3.40;;
6850;SDS011;3464;42.728;23.296;2023-05-07T12:57:13;13.90;;;2.83;;
6850;SDS011;3464;42.728;23.296;2023-05-07T12:59:40;12.53;;;3.50;;
6850;SDS011;3464;42.728;23.296;2023-05-07T13:02:07;10.50;;;3.30;;
6850;SDS011;3464;42.728;23.296;2023-05-07T13:04:34;12.80;;;3.33;;
6850;SDS011;3464;42.728;23.296;2023-05-07T13:07:01;11.07;;;3.40;;
6850;SDS011;3464;42.728;23.296;2023-05-07T13:09:28;10.13;;;3.40;;
6850;SDS011;3464;42.728;23.296;2023-05-07T13:11:54;13.00;;;3.30;;
6850;SDS011;3464;42.728;23.296;2023-05-07T13:14:21;10.53;;;3.27;;
6850;SDS011;3464;42.728;23.296;2023-05-07T13:16:47;11.07;;;3.60;;
6850;SDS011;3464;42.728;23.296;2023-05-07T13:19:14;11.50;;;3.47;;
6850;SDS011;3464;42.728;23.296;2023-05-07T13:21:41;10.07;;;3.03;;
6850;SDS011;3464;42.728;23.296;2023-05-07T13:24:07;13.00;;;3.73;;
6850;SDS011;3464;42.728;23.296;2023-05-07T13:26:34;10.47;;;3.10;;
6850;SDS011;3464;42.728;23.296;2023-05-07T13:29:00;10.57;;;3.30;;
6850;SDS011;3464;42.728;23.296;2023-05-07T13:31:27;11.07;;;3.50;;
6850;SDS011;3464;42.728;23.296;2023-05-07T13:33:53;11.80;;;3.30;;
6850;SDS011;3464;42.728;23.296;2023-05-07T13:36:20;11.57;;;3.73;;
6850;SDS011;3464;42.728;23.296;2023-05-07T13:38:46;10.43;;;3.13;;
6850;SDS011;3464;42.728;23.296;2023-05-07T13:41:13;11.90;;;3.30;;
6850;SDS011;3464;42.728;23.296;2023-05-07T13:43:39;12.00;;;3.73;;
6850;SDS011;3464;42.728;23.296;2023-05-07T13:46:06;11.10;;;3.50;;
6850;SDS011;3464;42.728;23.296;2023-05-07T13:48:32;10.07;;;3.40;;
6850;SDS011;3464;42.728;23.296;2023-05-07T13:50:59;12.00;;;3.23;;
6850;SDS011;3464;42.728;23.296;2023-05-07T13:53:26;10.77;;;3.00;;
6850;SDS011;3464;42.728;23.296;2023-05-07T13:55:55;10.03;;;3.40;;
6850;SDS011;3464;42.728;23.296;2023-05-07T13:58:22;12.70;;;4.07;;
6850;SDS011;3464;42.728;23.296;2023-05-07T14:00:50;10.23;;;3.57;;
6850;SDS011;3464;42.728;23.296;2023-05-07T14:03:17;10.63;;;3.33;;
6850;SDS011;3464;42.728;23.296;2023-05-07T14:05:45;10.47;;;3.30;;
6850;SDS011;3464;42.728;23.296;2023-05-07T14:08:11;12.03;;;3.27;;
6850;SDS011;3464;42.728;23.296;2023-05-07T14:10:38;12.80;;;3.27;;
6850;SDS011;3464;42.728;23.296;2023-05-07T14:13:04;10.90;;;3.30;;
6850;SDS011;3464;42.728;23.296;2023-05-07T14:15:31;10.87;;;3.40;;
6850;SDS011;3464;42.728;23.296;2023-05-07T14:17:57;13.53;;;3.67;;
6850;SDS011;3464;42.728;23.296;2023-05-07T14:20:24;11.60;;;3.50;;
6850;SDS011;3464;42.728;23.296;2023-05-07T14:22:51;10.63;;;3.20;;
6850;SDS011;3464;42.728;23.296;2023-05-07T14:25:17;10.10;;;3.20;;
6850;SDS011;3464;42.728;23.296;2023-05-07T14:27:44;9.80;;;3.20;;
6850;SDS011;3464;42.728;23.296;2023-05-07T14:30:11;11.03;;;3.47;;
6850;SDS011;3464;42.728;23.296;2023-05-07T14:32:39;11.33;;;3.73;;
6850;SDS011;3464;42.728;23.296;2023-05-07T14:35:06;10.83;;;3.17;;
6850;SDS011;3464;42.728;23.296;2023-05-07T14:37:33;11.23;;;3.27;;
6850;SDS011;3464;42.728;23.296;2023-05-07T14:39:59;11.93;;;3.70;;
6850;SDS011;3464;42.728;23.296;2023-05-07T14:42:26;9.83;;;3.00;;
6850;SDS011;3464;42.728;23.296;2023-05-07T14:47:27;10.73;;;3.53;;
6850;SDS011;3464;42.728;23.296;2023-05-07T14:49:53;17.77;;;4.03;;
6850;SDS011;3464;42.728;23.296;2023-05-07T14:52:20;11.70;;;3.67;;
6850;SDS011;3464;42.728;23.296;2023-05-07T14:54:47;14.20;;;4.50;;
6850;SDS011;3464;42.728;23.296;2023-05-07T14:57:13;11.40;;;3.60;;
6850;SDS011;3464;42.728;23.296;2023-05-07T14:59:40;13.70;;;3.63;;
6850;SDS011;3464;42.728;23.296;2023-05-07T15:02:06;10.70;;;3.63;;
6850;SDS011;3464;42.728;23.296;2023-05-07T15:04:34;11.30;;;3.70;;
6850;SDS011;3464;42.728;23.296;2023-05-07T15:07:02;11.83;;;3.53;;
6850;SDS011;3464;42.728;23.296;2023-05-07T15:09:29;12.13;;;3.87;;
6850;SDS011;3464;42.728;23.296;2023-05-07T15:11:56;11.80;;;3.60;;
6850;SDS011;3464;42.728;23.296;2023-05-07T15:14:23;10.73;;;3.20;;